sensor_id;sensor_type;location;lat;lon;timestamp;temperature;humidity
4584;DHT22;2304;47.606;12.186;2023-01-16T00:03:41;5.00;74.30
4584;DHT22;2304;47.606;12.186;2023-01-16T00:08:43;5.00;73.90
4584;DHT22;2304;47.606;12.186;2023-01-16T00:13:46;4.90;74.00
4584;DHT22;2304;47.606;12.186;2023-01-16T00:18:48;4.90;73.60
4584;DHT22;2304;47.606;12.186;2023-01-16T00:23:49;4.90;73.40
4584;DHT22;2304;47.606;12.186;2023-01-16T00:28:52;4.90;73.90
4584;DHT22;2304;47.606;12.186;2023-01-16T00:33:54;4.80;73.80
4584;DHT22;2304;47.606;12.186;2023-01-16T00:38:56;4.80;73.80
4584;DHT22;2304;47.606;12.186;2023-01-16T00:43:59;4.80;73.90
4584;DHT22;2304;47.606;12.186;2023-01-16T00:49:01;4.80;73.90
4584;DHT22;2304;47.606;12.186;2023-01-16T00:54:03;4.70;74.10
4584;DHT22;2304;47.606;12.186;2023-01-16T00:59:06;4.60;74.50
4584;DHT22;2304;47.606;12.186;2023-01-16T01:04:08;4.60;74.20
4584;DHT22;2304;47.606;12.186;2023-01-16T01:09:10;4.60;74.30
4584;DHT22;2304;47.606;12.186;2023-01-16T01:14:13;4.60;73.40
4584;DHT22;2304;47.606;12.186;2023-01-16T01:19:15;4.50;73.30
4584;DHT22;2304;47.606;12.186;2023-01-16T01:24:17;4.50;74.00
4584;DHT22;2304;47.606;12.186;2023-01-16T01:29:20;4.40;74.40
4584;DHT22;2304;47.606;12.186;2023-01-16T01:34:22;4.40;74.20
4584;DHT22;2304;47.606;12.186;2023-01-16T01:39:24;4.40;74.10
4584;DHT22;2304;47.606;12.186;2023-01-16T01:44:49;4.40;74.10
4584;DHT22;2304;47.606;12.186;2023-01-16T01:49:52;4.40;73.60
4584;DHT22;2304;47.606;12.186;2023-01-16T01:54:58;4.30;74.10
4584;DHT22;2304;47.606;12.186;2023-01-16T02:00:06;4.30;74.00
4584;DHT22;2304;47.606;12.186;2023-01-16T02:05:10;4.30;74.10
4584;DHT22;2304;47.606;12.186;2023-01-16T02:10:20;4.20;74.60
4584;DHT22;2304;47.606;12.186;2023-01-16T02:15:24;4.20;75.30
4584;DHT22;2304;47.606;12.186;2023-01-16T02:20:26;4.20;74.90
4584;DHT22;2304;47.606;12.186;2023-01-16T02:31:16;4.20;73.30
4584;DHT22;2304;47.606;12.186;2023-01-16T02:36:28;4.20;72.80
4584;DHT22;2304;47.606;12.186;2023-01-16T02:41:37;4.20;72.50
4584;DHT22;2304;47.606;12.186;2023-01-16T02:46:50;4.10;72.40
4584;DHT22;2304;47.606;12.186;2023-01-16T02:51:57;3.90;72.60
4584;DHT22;2304;47.606;12.186;2023-01-16T02:57:05;3.90;73.20
4584;DHT22;2304;47.606;12.186;2023-01-16T03:02:10;3.90;73.60
4584;DHT22;2304;47.606;12.186;2023-01-16T03:07:26;3.90;72.90
4584;DHT22;2304;47.606;12.186;2023-01-16T03:12:40;3.90;72.40
4584;DHT22;2304;47.606;12.186;2023-01-16T03:17:59;3.80;72.10
4584;DHT22;2304;47.606;12.186;2023-01-16T03:23:09;3.80;73.50
4584;DHT22;2304;47.606;12.186;2023-01-16T03:28:20;3.70;74.20
4584;DHT22;2304;47.606;12.186;2023-01-16T03:33:31;3.70;74.70
4584;DHT22;2304;47.606;12.186;2023-01-16T03:38:36;3.60;75.10
4584;DHT22;2304;47.606;12.186;2023-01-16T03:43:39;3.60;75.40
4584;DHT22;2304;47.606;12.186;2023-01-16T03:48:46;3.50;75.60
4584;DHT22;2304;47.606;12.186;2023-01-16T03:53:55;3.50;75.30
4584;DHT22;2304;47.606;12.186;2023-01-16T03:58:59;3.50;74.60
4584;DHT22;2304;47.606;12.186;2023-01-16T04:04:04;3.40;74.40
4584;DHT22;2304;47.606;12.186;2023-01-16T04:09:10;3.40;75.00
4584;DHT22;2304;47.606;12.186;2023-01-16T04:14:14;3.30;76.00
4584;DHT22;2304;47.606;12.186;2023-01-16T04:19:19;3.20;77.10
4584;DHT22;2304;47.606;12.186;2023-01-16T04:24:23;3.10;77.50
4584;DHT22;2304;47.606;12.186;2023-01-16T04:29:25;3.00;78.30
4584;DHT22;2304;47.606;12.186;2023-01-16T04:34:28;3.10;79.00
4584;DHT22;2304;47.606;12.186;2023-01-16T04:39:30;3.00;79.10
4584;DHT22;2304;47.606;12.186;2023-01-16T04:44:32;3.00;79.30
4584;DHT22;2304;47.606;12.186;2023-01-16T04:49:35;3.00;78.60
4584;DHT22;2304;47.606;12.186;2023-01-16T04:54:37;3.00;78.70
4584;DHT22;2304;47.606;12.186;2023-01-16T04:59:39;3.00;79.60
4584;DHT22;2304;47.606;12.186;2023-01-16T05:04:42;3.00;79.80
4584;DHT22;2304;47.606;12.186;2023-01-16T05:09:44;3.00;79.40
4584;DHT22;2304;47.606;12.186;2023-01-16T05:14:45;3.00;79.10
4584;DHT22;2304;47.606;12.186;2023-01-16T05:19:49;2.90;79.30
4584;DHT22;2304;47.606;12.186;2023-01-16T05:24:50;2.90;79.50
4584;DHT22;2304;47.606;12.186;2023-01-16T05:29:52;2.90;79.40
4584;DHT22;2304;47.606;12.186;2023-01-16T05:34:55;2.90;78.90
4584;DHT22;2304;47.606;12.186;2023-01-16T05:39:57;3.00;78.70
4584;DHT22;2304;47.606;12.186;2023-01-16T05:45:00;2.90;78.50
4584;DHT22;2304;47.606;12.186;2023-01-16T05:50:04;3.00;78.40
4584;DHT22;2304;47.606;12.186;2023-01-16T05:55:06;3.00;78.10
4584;DHT22;2304;47.606;12.186;2023-01-16T06:00:09;3.00;78.50
4584;DHT22;2304;47.606;12.186;2023-01-16T06:05:13;3.00;79.10
4584;DHT22;2304;47.606;12.186;2023-01-16T06:10:15;3.00;79.00
4584;DHT22;2304;47.606;12.186;2023-01-16T06:15:18;3.00;79.50
4584;DHT22;2304;47.606;12.186;2023-01-16T06:20:22;3.00;79.70
4584;DHT22;2304;47.606;12.186;2023-01-16T06:25:24;3.00;79.90
4584;DHT22;2304;47.606;12.186;2023-01-16T06:30:26;3.10;79.80
4584;DHT22;2304;47.606;12.186;2023-01-16T06:35:29;3.00;79.50
4584;DHT22;2304;47.606;12.186;2023-01-16T06:40:31;3.20;79.90
4584;DHT22;2304;47.606;12.186;2023-01-16T06:45:33;3.10;79.50
4584;DHT22;2304;47.606;12.186;2023-01-16T06:50:36;3.10;78.80
4584;DHT22;2304;47.606;12.186;2023-01-16T06:55:38;3.00;79.70
4584;DHT22;2304;47.606;12.186;2023-01-16T07:00:40;2.90;79.90
4584;DHT22;2304;47.606;12.186;2023-01-16T07:05:44;2.90;80.20
4584;DHT22;2304;47.606;12.186;2023-01-16T07:10:46;3.10;80.00
4584;DHT22;2304;47.606;12.186;2023-01-16T07:15:48;2.80;78.90
4584;DHT22;2304;47.606;12.186;2023-01-16T07:21:11;2.90;78.90
4584;DHT22;2304;47.606;12.186;2023-01-16T07:26:32;2.90;78.60
4584;DHT22;2304;47.606;12.186;2023-01-16T07:31:35;2.90;78.20
4584;DHT22;2304;47.606;12.186;2023-01-16T07:36:38;2.80;76.80
4584;DHT22;2304;47.606;12.186;2023-01-16T07:41:40;2.80;77.70
4584;DHT22;2304;47.606;12.186;2023-01-16T07:46:41;2.60;77.40
4584;DHT22;2304;47.606;12.186;2023-01-16T07:51:44;2.70;77.00
4584;DHT22;2304;47.606;12.186;2023-01-16T07:56:46;2.70;77.10
4584;DHT22;2304;47.606;12.186;2023-01-16T08:01:48;2.70;76.60
4584;DHT22;2304;47.606;12.186;2023-01-16T08:06:52;2.60;76.00
4584;DHT22;2304;47.606;12.186;2023-01-16T08:11:53;2.50;76.50
4584;DHT22;2304;47.606;12.186;2023-01-16T08:16:55;2.60;76.00
4584;DHT22;2304;47.606;12.186;2023-01-16T08:21:58;2.70;75.20
4584;DHT22;2304;47.606;12.186;2023-01-16T08:27:00;2.70;75.20
4584;DHT22;2304;47.606;12.186;2023-01-16T08:32:02;2.60;73.40
4584;DHT22;2304;47.606;12.186;2023-01-16T08:37:05;2.90;75.70
4584;DHT22;2304;47.606;12.186;2023-01-16T08:42:11;2.70;75.50
4584;DHT22;2304;47.606;12.186;2023-01-16T08:47:31;2.80;74.10
4584;DHT22;2304;47.606;12.186;2023-01-16T08:52:52;3.10;75.70
4584;DHT22;2304;47.606;12.186;2023-01-16T08:57:53;3.80;78.50
4584;DHT22;2304;47.606;12.186;2023-01-16T09:02:59;4.10;72.70
4584;DHT22;2304;47.606;12.186;2023-01-16T09:08:03;4.70;72.60
4584;DHT22;2304;47.606;12.186;2023-01-16T09:13:05;4.80;65.70
4584;DHT22;2304;47.606;12.186;2023-01-16T09:18:24;5.00;66.00
4584;DHT22;2304;47.606;12.186;2023-01-16T09:23:27;5.10;66.00
4584;DHT22;2304;47.606;12.186;2023-01-16T09:28:29;5.30;66.70
4584;DHT22;2304;47.606;12.186;2023-01-16T09:33:31;5.40;66.50
4584;DHT22;2304;47.606;12.186;2023-01-16T09:38:34;5.70;67.30
4584;DHT22;2304;47.606;12.186;2023-01-16T09:43:37;6.20;64.90
4584;DHT22;2304;47.606;12.186;2023-01-16T09:48:47;6.20;61.10
4584;DHT22;2304;47.606;12.186;2023-01-16T09:53:52;6.40;63.00
4584;DHT22;2304;47.606;12.186;2023-01-16T09:59:21;6.30;63.60
4584;DHT22;2304;47.606;12.186;2023-01-16T10:04:25;6.70;62.10
4584;DHT22;2304;47.606;12.186;2023-01-16T10:09:35;6.90;60.20
4584;DHT22;2304;47.606;12.186;2023-01-16T10:14:51;7.10;60.00
4584;DHT22;2304;47.606;12.186;2023-01-16T10:20:24;7.10;57.00
4584;DHT22;2304;47.606;12.186;2023-01-16T10:25:32;7.50;59.20
4584;DHT22;2304;47.606;12.186;2023-01-16T10:30:40;7.30;54.30
4584;DHT22;2304;47.606;12.186;2023-01-16T10:35:48;7.00;53.20
4584;DHT22;2304;47.606;12.186;2023-01-16T10:40:53;6.80;52.90
4584;DHT22;2304;47.606;12.186;2023-01-16T10:45:59;6.60;53.30
4584;DHT22;2304;47.606;12.186;2023-01-16T10:51:23;6.90;53.80
4584;DHT22;2304;47.606;12.186;2023-01-16T10:56:26;7.00;53.80
4584;DHT22;2304;47.606;12.186;2023-01-16T11:01:28;7.00;53.70
4584;DHT22;2304;47.606;12.186;2023-01-16T11:06:30;6.90;54.00
4584;DHT22;2304;47.606;12.186;2023-01-16T11:11:35;6.60;54.20
4584;DHT22;2304;47.606;12.186;2023-01-16T11:17:23;6.70;54.30
4584;DHT22;2304;47.606;12.186;2023-01-16T11:22:45;6.70;54.30
4584;DHT22;2304;47.606;12.186;2023-01-16T11:27:51;6.70;53.90
4584;DHT22;2304;47.606;12.186;2023-01-16T11:32:54;6.80;53.70
4584;DHT22;2304;47.606;12.186;2023-01-16T11:37:58;6.80;53.90
4584;DHT22;2304;47.606;12.186;2023-01-16T11:43:12;7.00;53.40
4584;DHT22;2304;47.606;12.186;2023-01-16T11:48:39;7.20;53.30
4584;DHT22;2304;47.606;12.186;2023-01-16T11:53:43;7.50;53.00
4584;DHT22;2304;47.606;12.186;2023-01-16T11:58:53;7.60;51.50
4584;DHT22;2304;47.606;12.186;2023-01-16T12:04:13;7.30;50.70
4584;DHT22;2304;47.606;12.186;2023-01-16T12:14:51;7.30;50.40
4584;DHT22;2304;47.606;12.186;2023-01-16T12:20:04;7.30;51.00
4584;DHT22;2304;47.606;12.186;2023-01-16T12:25:22;7.60;51.00
4584;DHT22;2304;47.606;12.186;2023-01-16T12:30:36;7.70;50.90
4584;DHT22;2304;47.606;12.186;2023-01-16T12:35:50;7.60;50.40
4584;DHT22;2304;47.606;12.186;2023-01-16T12:41:19;7.30;49.90
4584;DHT22;2304;47.606;12.186;2023-01-16T12:46:47;7.10;50.80
4584;DHT22;2304;47.606;12.186;2023-01-16T12:52:05;7.00;51.30
4584;DHT22;2304;47.606;12.186;2023-01-16T12:57:26;7.00;52.10
4584;DHT22;2304;47.606;12.186;2023-01-16T13:02:36;7.00;51.80
4584;DHT22;2304;47.606;12.186;2023-01-16T13:07:44;6.80;51.90
4584;DHT22;2304;47.606;12.186;2023-01-16T13:12:48;6.70;51.80
4584;DHT22;2304;47.606;12.186;2023-01-16T13:18:16;6.70;52.50
4584;DHT22;2304;47.606;12.186;2023-01-16T13:23:22;6.60;52.10
4584;DHT22;2304;47.606;12.186;2023-01-16T13:28:33;6.40;51.90
4584;DHT22;2304;47.606;12.186;2023-01-16T13:33:42;6.40;51.60
4584;DHT22;2304;47.606;12.186;2023-01-16T13:38:55;6.40;52.40
4584;DHT22;2304;47.606;12.186;2023-01-16T13:44:06;6.40;53.20
4584;DHT22;2304;47.606;12.186;2023-01-16T13:49:28;6.30;53.70
4584;DHT22;2304;47.606;12.186;2023-01-16T13:54:38;6.30;53.70
4584;DHT22;2304;47.606;12.186;2023-01-16T13:59:44;6.30;54.20
4584;DHT22;2304;47.606;12.186;2023-01-16T14:05:17;6.20;54.90
4584;DHT22;2304;47.606;12.186;2023-01-16T14:10:23;6.20;54.80
4584;DHT22;2304;47.606;12.186;2023-01-16T14:15:25;6.20;55.00
4584;DHT22;2304;47.606;12.186;2023-01-16T14:20:51;6.20;55.10
4584;DHT22;2304;47.606;12.186;2023-01-16T14:25:55;6.10;54.90
4584;DHT22;2304;47.606;12.186;2023-01-16T14:30:59;6.10;54.90
4584;DHT22;2304;47.606;12.186;2023-01-16T14:36:02;6.10;55.50
4584;DHT22;2304;47.606;12.186;2023-01-16T14:41:05;6.00;55.10
4584;DHT22;2304;47.606;12.186;2023-01-16T14:46:30;6.00;55.40
4584;DHT22;2304;47.606;12.186;2023-01-16T14:51:59;6.00;55.90
4584;DHT22;2304;47.606;12.186;2023-01-16T14:57:22;5.90;56.50
4584;DHT22;2304;47.606;12.186;2023-01-16T15:02:28;6.00;56.30
4584;DHT22;2304;47.606;12.186;2023-01-16T15:07:38;5.90;56.40
4584;DHT22;2304;47.606;12.186;2023-01-16T15:12:44;5.90;56.60
4584;DHT22;2304;47.606;12.186;2023-01-16T15:17:46;5.90;56.90
4584;DHT22;2304;47.606;12.186;2023-01-16T15:23:22;6.00;57.40
4584;DHT22;2304;47.606;12.186;2023-01-16T15:28:30;6.00;56.70
4584;DHT22;2304;47.606;12.186;2023-01-16T15:33:35;6.10;56.70
4584;DHT22;2304;47.606;12.186;2023-01-16T15:38:50;6.10;56.80
4584;DHT22;2304;47.606;12.186;2023-01-16T15:43:54;6.20;56.70
4584;DHT22;2304;47.606;12.186;2023-01-16T15:49:16;6.20;57.10
4584;DHT22;2304;47.606;12.186;2023-01-16T15:54:25;6.20;58.20
4584;DHT22;2304;47.606;12.186;2023-01-16T15:59:29;6.10;58.20
4584;DHT22;2304;47.606;12.186;2023-01-16T16:04:31;6.20;58.10
4584;DHT22;2304;47.606;12.186;2023-01-16T16:09:34;6.20;58.40
4584;DHT22;2304;47.606;12.186;2023-01-16T16:14:37;6.20;58.60
4584;DHT22;2304;47.606;12.186;2023-01-16T16:19:57;6.20;58.50
4584;DHT22;2304;47.606;12.186;2023-01-16T16:25:07;6.10;58.60
4584;DHT22;2304;47.606;12.186;2023-01-16T16:30:15;6.10;59.20
4584;DHT22;2304;47.606;12.186;2023-01-16T16:35:22;6.00;58.80
4584;DHT22;2304;47.606;12.186;2023-01-16T16:40:27;5.90;59.30
4584;DHT22;2304;47.606;12.186;2023-01-16T16:45:30;6.00;59.50
4584;DHT22;2304;47.606;12.186;2023-01-16T16:50:36;6.00;59.50
4584;DHT22;2304;47.606;12.186;2023-01-16T16:55:41;5.90;59.70
4584;DHT22;2304;47.606;12.186;2023-01-16T17:00:45;5.90;60.00
4584;DHT22;2304;47.606;12.186;2023-01-16T17:05:47;5.80;60.10
4584;DHT22;2304;47.606;12.186;2023-01-16T17:10:54;5.60;61.20
4584;DHT22;2304;47.606;12.186;2023-01-16T17:15:57;5.50;62.20
4584;DHT22;2304;47.606;12.186;2023-01-16T17:20:59;5.40;63.00
4584;DHT22;2304;47.606;12.186;2023-01-16T17:26:02;5.30;63.60
4584;DHT22;2304;47.606;12.186;2023-01-16T17:31:05;5.20;64.60
4584;DHT22;2304;47.606;12.186;2023-01-16T17:36:09;5.20;64.10
4584;DHT22;2304;47.606;12.186;2023-01-16T17:41:17;5.20;64.60
4584;DHT22;2304;47.606;12.186;2023-01-16T17:46:22;5.30;64.50
4584;DHT22;2304;47.606;12.186;2023-01-16T17:51:24;5.20;65.00
4584;DHT22;2304;47.606;12.186;2023-01-16T17:56:27;5.10;65.50
4584;DHT22;2304;47.606;12.186;2023-01-16T18:01:30;5.10;66.10
4584;DHT22;2304;47.606;12.186;2023-01-16T18:06:33;5.10;65.40
4584;DHT22;2304;47.606;12.186;2023-01-16T18:11:38;4.90;65.20
4584;DHT22;2304;47.606;12.186;2023-01-16T18:16:57;4.90;65.60
4584;DHT22;2304;47.606;12.186;2023-01-16T18:22:17;4.90;66.10
4584;DHT22;2304;47.606;12.186;2023-01-16T18:27:21;4.80;66.70
4584;DHT22;2304;47.606;12.186;2023-01-16T18:32:22;4.70;66.00
4584;DHT22;2304;47.606;12.186;2023-01-16T18:37:30;4.70;66.60
4584;DHT22;2304;47.606;12.186;2023-01-16T18:42:33;4.60;66.30
4584;DHT22;2304;47.606;12.186;2023-01-16T18:47:53;4.60;66.00
4584;DHT22;2304;47.606;12.186;2023-01-16T18:53:13;4.50;66.30
4584;DHT22;2304;47.606;12.186;2023-01-16T18:58:39;4.60;66.20
4584;DHT22;2304;47.606;12.186;2023-01-16T19:03:55;4.60;66.20
4584;DHT22;2304;47.606;12.186;2023-01-16T19:08:57;4.60;65.70
4584;DHT22;2304;47.606;12.186;2023-01-16T19:14:02;4.50;66.00
4584;DHT22;2304;47.606;12.186;2023-01-16T19:19:04;4.40;66.30
4584;DHT22;2304;47.606;12.186;2023-01-16T19:24:07;4.30;67.10
4584;DHT22;2304;47.606;12.186;2023-01-16T19:29:12;4.30;66.90
4584;DHT22;2304;47.606;12.186;2023-01-16T19:34:14;4.40;66.60
4584;DHT22;2304;47.606;12.186;2023-01-16T19:39:16;4.40;66.30
4584;DHT22;2304;47.606;12.186;2023-01-16T19:44:19;4.40;65.90
4584;DHT22;2304;47.606;12.186;2023-01-16T19:49:38;4.50;65.50
4584;DHT22;2304;47.606;12.186;2023-01-16T19:54:41;4.40;66.20
4584;DHT22;2304;47.606;12.186;2023-01-16T19:59:44;4.40;65.60
4584;DHT22;2304;47.606;12.186;2023-01-16T20:04:46;4.40;65.40
4584;DHT22;2304;47.606;12.186;2023-01-16T20:09:48;4.40;65.50
4584;DHT22;2304;47.606;12.186;2023-01-16T20:14:52;4.40;64.80
4584;DHT22;2304;47.606;12.186;2023-01-16T20:19:54;4.40;64.80
4584;DHT22;2304;47.606;12.186;2023-01-16T20:24:56;4.30;64.90
4584;DHT22;2304;47.606;12.186;2023-01-16T20:29:59;4.20;64.90
4584;DHT22;2304;47.606;12.186;2023-01-16T20:35:01;4.10;65.10
4584;DHT22;2304;47.606;12.186;2023-01-16T20:40:04;4.10;65.40
4584;DHT22;2304;47.606;12.186;2023-01-16T20:45:09;4.10;65.90
4584;DHT22;2304;47.606;12.186;2023-01-16T20:50:28;4.00;65.80
4584;DHT22;2304;47.606;12.186;2023-01-16T20:55:30;3.90;66.20
4584;DHT22;2304;47.606;12.186;2023-01-16T21:00:33;3.90;66.40
4584;DHT22;2304;47.606;12.186;2023-01-16T21:05:35;3.90;66.10
4584;DHT22;2304;47.606;12.186;2023-01-16T21:10:38;4.00;66.60
4584;DHT22;2304;47.606;12.186;2023-01-16T21:15:41;3.90;66.20
4584;DHT22;2304;47.606;12.186;2023-01-16T21:20:43;3.90;66.10
4584;DHT22;2304;47.606;12.186;2023-01-16T21:26:11;3.70;66.60
4584;DHT22;2304;47.606;12.186;2023-01-16T21:31:14;3.80;66.40
4584;DHT22;2304;47.606;12.186;2023-01-16T21:36:16;3.70;66.60
4584;DHT22;2304;47.606;12.186;2023-01-16T21:41:17;3.70;66.70
4584;DHT22;2304;47.606;12.186;2023-01-16T21:46:20;3.70;66.50
4584;DHT22;2304;47.606;12.186;2023-01-16T21:51:30;3.60;66.90
4584;DHT22;2304;47.606;12.186;2023-01-16T21:56:32;3.60;66.80
4584;DHT22;2304;47.606;12.186;2023-01-16T22:01:35;3.70;66.70
4584;DHT22;2304;47.606;12.186;2023-01-16T22:06:37;3.60;67.30
4584;DHT22;2304;47.606;12.186;2023-01-16T22:11:39;3.50;67.40
4584;DHT22;2304;47.606;12.186;2023-01-16T22:17:00;3.40;69.10
4584;DHT22;2304;47.606;12.186;2023-01-16T22:22:19;3.20;69.30
4584;DHT22;2304;47.606;12.186;2023-01-16T22:27:26;3.30;69.70
4584;DHT22;2304;47.606;12.186;2023-01-16T22:32:30;3.30;69.30
4584;DHT22;2304;47.606;12.186;2023-01-16T22:37:32;3.10;69.70
4584;DHT22;2304;47.606;12.186;2023-01-16T22:42:34;3.00;71.50
4584;DHT22;2304;47.606;12.186;2023-01-16T22:47:37;3.00;71.60
4584;DHT22;2304;47.606;12.186;2023-01-16T22:52:39;3.00;71.00
4584;DHT22;2304;47.606;12.186;2023-01-16T22:57:41;2.90;71.30
4584;DHT22;2304;47.606;12.186;2023-01-16T23:02:44;2.70;71.70
4584;DHT22;2304;47.606;12.186;2023-01-16T23:07:46;2.80;72.50
4584;DHT22;2304;47.606;12.186;2023-01-16T23:12:48;2.70;73.00
4584;DHT22;2304;47.606;12.186;2023-01-16T23:17:51;2.80;72.90
4584;DHT22;2304;47.606;12.186;2023-01-16T23:22:53;2.80;72.10
4584;DHT22;2304;47.606;12.186;2023-01-16T23:27:55;2.70;72.50
4584;DHT22;2304;47.606;12.186;2023-01-16T23:32:58;2.70;72.40
4584;DHT22;2304;47.606;12.186;2023-01-16T23:38:00;2.80;71.90
4584;DHT22;2304;47.606;12.186;2023-01-16T23:43:02;2.90;71.20
4584;DHT22;2304;47.606;12.186;2023-01-16T23:48:22;2.90;70.50
4584;DHT22;2304;47.606;12.186;2023-01-16T23:53:24;2.90;69.80
4584;DHT22;2304;47.606;12.186;2023-01-16T23:58:26;2.90;69.70
